Time;durP1;ratioP1;P1;durP2;ratioP2;P2;SDS_P1;SDS_P2;PMS_P1;PMS_P2;Temp;Humidity;BMP_temperature;BMP_pressure;BME280_temperature;BME280_humidity;BME280_pressure;Samples;Min_cycle;Max_cycle;Signal;HPM_P1;HPM_P2
2022/04/12 00:00:43;;;;;;;19.50;14.67;;;;;;;;;;4974516;28;20597;-46
2022/04/12 00:03:10;;;;;;;19.30;13.43;;;;;;;;;;4975699;28;20177;-46
2022/04/12 00:05:37;;;;;;;18.60;12.73;;;;;;;;;;4980427;28;21167;-46
2022/04/12 00:08:03;;;;;;;20.77;13.43;;;;;;;;;;4977651;28;20257;-45
2022/04/12 00:10:30;;;;;;;17.83;13.03;;;;;;;;;;4982667;28;20528;-45
2022/04/12 00:12:57;;;;;;;17.40;13.57;;;;;;;;;;4981408;28;20775;-44
2022/04/12 00:15:23;;;;;;;17.57;12.90;;;;;;;;;;4980974;28;20188;-45
2022/04/12 00:20:34;;;;;;;20.43;13.63;;;;;;;;;;4984842;28;20438;-45
2022/04/12 00:23:01;;;;;;;19.20;14.23;;;;;;;;;;4983867;28;20475;-45
2022/04/12 00:25:28;;;;;;;17.87;12.87;;;;;;;;;;4979956;28;20513;-45
2022/04/12 00:27:55;;;;;;;22.27;13.07;;;;;;;;;;4975116;28;20487;-46
2022/04/12 00:30:22;;;;;;;22.37;13.33;;;;;;;;;;4975566;28;21138;-46
2022/04/12 00:32:50;;;;;;;19.93;13.57;;;;;;;;;;4975173;28;20180;-46
2022/04/12 00:35:17;;;;;;;20.03;13.10;;;;;;;;;;4979040;28;20432;-45
2022/04/12 00:37:43;;;;;;;20.27;12.40;;;;;;;;;;4978881;28;20428;-45
2022/04/12 00:40:13;;;;;;;20.83;12.67;;;;;;;;;;4973228;28;20432;-46
2022/04/12 00:42:39;;;;;;;18.77;12.60;;;;;;;;;;4978274;28;20703;-46
2022/04/12 00:45:06;;;;;;;18.47;13.57;;;;;;;;;;4980236;28;20759;-45
2022/04/12 00:47:32;;;;;;;20.13;12.00;;;;;;;;;;4976392;28;20426;-45
2022/04/12 00:49:58;;;;;;;21.10;12.50;;;;;;;;;;4978670;28;20709;-45
2022/04/12 00:52:25;;;;;;;21.67;13.40;;;;;;;;;;4982855;28;20938;-45
2022/04/12 00:54:53;;;;;;;18.90;12.97;;;;;;;;;;4981972;28;20656;-45
2022/04/12 00:57:19;;;;;;;18.17;12.90;;;;;;;;;;4976615;28;20436;-45
2022/04/12 00:59:46;;;;;;;18.97;12.97;;;;;;;;;;4977212;28;20424;-45
2022/04/12 01:02:12;;;;;;;18.83;13.20;;;;;;;;;;4979679;28;21044;-44
2022/04/12 01:04:38;;;;;;;23.47;14.83;;;;;;;;;;4977881;28;20173;-45
2022/04/12 01:07:06;;;;;;;24.97;14.83;;;;;;;;;;4980463;28;20428;-46
2022/04/12 01:09:32;;;;;;;22.90;14.13;;;;;;;;;;4980423;28;20430;-46
2022/04/12 01:11:58;;;;;;;22.77;14.30;;;;;;;;;;5012861;28;20423;-45
2022/04/12 01:14:26;;;;;;;24.43;14.67;;;;;;;;;;4983777;28;20481;-45
2022/04/12 01:16:52;;;;;;;20.03;14.40;;;;;;;;;;4978697;28;20546;-46
2022/04/12 01:19:19;;;;;;;22.57;14.30;;;;;;;;;;4980032;28;20455;-45
2022/04/12 01:21:57;;;;;;;22.90;14.80;;;;;;;;;;4983807;28;20471;-46
2022/04/12 01:24:24;;;;;;;23.37;14.67;;;;;;;;;;4980893;28;20427;-45
2022/04/12 01:26:50;;;;;;;22.50;14.83;;;;;;;;;;4978216;28;21367;-44
2022/04/12 01:29:16;;;;;;;26.10;15.17;;;;;;;;;;4976288;28;21617;-45
2022/04/12 01:31:43;;;;;;;22.57;15.30;;;;;;;;;;4982839;28;20451;-45
2022/04/12 01:34:09;;;;;;;19.93;13.40;;;;;;;;;;4976741;28;20590;-46
2022/04/12 01:36:35;;;;;;;20.97;14.23;;;;;;;;;;4975642;28;21175;-45
2022/04/12 01:39:02;;;;;;;20.23;13.80;;;;;;;;;;4979699;28;20423;-45
2022/04/12 01:41:29;;;;;;;21.77;14.73;;;;;;;;;;4977441;28;21085;-46
2022/04/12 01:43:55;;;;;;;20.70;14.70;;;;;;;;;;4974656;28;20516;-46
2022/04/12 01:46:21;;;;;;;20.47;14.07;;;;;;;;;;4973268;28;20908;-44
2022/04/12 01:48:49;;;;;;;23.10;14.83;;;;;;;;;;4975004;28;21294;-45
2022/04/12 01:51:15;;;;;;;21.03;14.23;;;;;;;;;;4976285;28;20415;-44
2022/04/12 01:53:42;;;;;;;22.33;14.23;;;;;;;;;;4977279;28;21746;-45
2022/04/12 01:56:08;;;;;;;20.13;14.37;;;;;;;;;;4972546;28;20424;-45
2022/04/12 01:58:35;;;;;;;20.30;14.60;;;;;;;;;;4972833;28;20445;-45
2022/04/12 02:01:02;;;;;;;19.57;13.40;;;;;;;;;;4972837;28;21042;-45
2022/04/12 02:03:28;;;;;;;17.70;13.47;;;;;;;;;;4974311;28;20435;-45
2022/04/12 02:05:57;;;;;;;21.70;13.63;;;;;;;;;;4978252;28;21073;-46
2022/04/12 02:08:23;;;;;;;23.80;13.77;;;;;;;;;;4980362;28;20432;-46
2022/04/12 02:10:49;;;;;;;18.93;13.53;;;;;;;;;;4978276;28;20427;-45
2022/04/12 02:13:18;;;;;;;18.50;12.87;;;;;;;;;;4978540;28;21165;-46
2022/04/12 02:15:44;;;;;;;20.20;13.23;;;;;;;;;;4972284;28;20427;-45
2022/04/12 02:18:10;;;;;;;19.57;13.60;;;;;;;;;;4975715;28;20551;-45
2022/04/12 02:20:37;;;;;;;19.73;13.80;;;;;;;;;;4979717;28;20662;-46
2022/04/12 02:23:03;;;;;;;19.57;13.70;;;;;;;;;;4975191;28;20753;-45
2022/04/12 02:25:29;;;;;;;19.93;13.10;;;;;;;;;;4975225;28;20439;-45
2022/04/12 02:27:55;;;;;;;15.10;11.80;;;;;;;;;;4976794;28;20761;-45
2022/04/12 02:30:21;;;;;;;19.47;13.27;;;;;;;;;;4975031;28;20424;-45
2022/04/12 02:32:47;;;;;;;18.60;13.23;;;;;;;;;;4977005;28;20435;-44
2022/04/12 02:35:13;;;;;;;17.77;13.40;;;;;;;;;;4977436;28;21603;-45
2022/04/12 02:37:39;;;;;;;17.50;12.93;;;;;;;;;;4975796;28;20496;-45
2022/04/12 02:40:06;;;;;;;21.03;13.93;;;;;;;;;;4976277;28;20435;-45
2022/04/12 02:42:32;;;;;;;19.93;12.53;;;;;;;;;;4976916;28;20962;-45
2022/04/12 02:44:58;;;;;;;21.10;12.80;;;;;;;;;;4977656;28;21189;-45
2022/04/12 02:47:25;;;;;;;18.47;11.77;;;;;;;;;;4974623;28;20427;-45
2022/04/12 02:49:51;;;;;;;17.77;11.40;;;;;;;;;;4976370;28;20428;-45
2022/04/12 02:52:17;;;;;;;18.40;12.07;;;;;;;;;;4974408;28;20428;-45
2022/04/12 02:54:43;;;;;;;17.87;11.90;;;;;;;;;;4974744;28;20750;-45
2022/04/12 02:57:10;;;;;;;16.67;10.57;;;;;;;;;;4975772;28;20432;-45
2022/04/12 02:59:36;;;;;;;18.77;11.03;;;;;;;;;;4977384;28;20427;-45
2022/04/12 03:02:02;;;;;;;16.50;10.10;;;;;;;;;;4990289;28;20884;-45
2022/04/12 03:04:29;;;;;;;13.07;8.97;;;;;;;;;;4979296;28;20603;-45
2022/04/12 03:06:55;;;;;;;14.03;9.00;;;;;;;;;;4976770;28;20982;-45
2022/04/12 03:09:22;;;;;;;15.30;8.77;;;;;;;;;;4972654;28;20458;-45
2022/04/12 03:11:48;;;;;;;11.67;8.20;;;;;;;;;;4974456;28;21337;-46
2022/04/12 03:14:14;;;;;;;12.70;8.43;;;;;;;;;;4974401;28;20903;-46
2022/04/12 03:16:42;;;;;;;13.10;7.80;;;;;;;;;;4974341;28;20440;-46
2022/04/12 03:19:08;;;;;;;11.03;7.17;;;;;;;;;;4975380;28;20427;-45
2022/04/12 03:21:34;;;;;;;10.00;6.90;;;;;;;;;;4972528;28;20526;-46
2022/04/12 03:24:00;;;;;;;11.27;6.83;;;;;;;;;;4994174;28;20453;-44
2022/04/12 03:26:27;;;;;;;11.50;6.47;;;;;;;;;;5007015;28;21520;-45
2022/04/12 03:28:53;;;;;;;9.30;5.30;;;;;;;;;;4975060;28;20431;-46
2022/04/12 03:31:20;;;;;;;9.10;5.37;;;;;;;;;;4979541;28;20844;-46
2022/04/12 03:33:46;;;;;;;9.33;4.97;;;;;;;;;;4977355;28;20519;-45
2022/04/12 03:36:13;;;;;;;8.37;4.87;;;;;;;;;;4970940;28;20473;-46
2022/04/12 03:38:48;;;;;;;8.37;5.60;;;;;;;;;;4970533;28;20736;-46
2022/04/12 03:41:14;;;;;;;7.53;5.43;;;;;;;;;;4978162;28;20461;-46
2022/04/12 03:43:40;;;;;;;8.53;5.70;;;;;;;;;;4980628;28;20431;-45
2022/04/12 03:46:06;;;;;;;10.10;5.13;;;;;;;;;;4993340;28;20511;-45
2022/04/12 03:48:33;;;;;;;8.33;4.83;;;;;;;;;;4979522;28;20421;-45
2022/04/12 03:50:59;;;;;;;10.33;4.90;;;;;;;;;;4982460;28;20647;-46
2022/04/12 03:53:25;;;;;;;8.70;3.67;;;;;;;;;;4981774;28;21113;-46
2022/04/12 03:55:51;;;;;;;8.57;3.77;;;;;;;;;;4980771;28;20888;-46
2022/04/12 03:58:19;;;;;;;6.37;3.10;;;;;;;;;;4992500;28;20441;-45
2022/04/12 04:00:46;;;;;;;5.13;3.10;;;;;;;;;;4982888;28;20440;-46
2022/04/12 04:03:12;;;;;;;7.70;3.83;;;;;;;;;;4982233;28;21077;-46
2022/04/12 04:05:38;;;;;;;7.20;3.53;;;;;;;;;;4980938;28;20524;-46
2022/04/12 04:08:04;;;;;;;6.73;3.13;;;;;;;;;;4981687;28;20439;-46
2022/04/12 04:10:31;;;;;;;9.43;3.23;;;;;;;;;;4980859;28;20674;-46
2022/04/12 04:12:57;;;;;;;5.10;2.70;;;;;;;;;;4983829;28;20542;-45
2022/04/12 04:15:23;;;;;;;7.27;2.83;;;;;;;;;;4985176;28;20955;-46
2022/04/12 04:17:50;;;;;;;6.53;2.93;;;;;;;;;;4979568;28;20460;-46
2022/04/12 04:20:17;;;;;;;8.57;2.90;;;;;;;;;;4980536;28;20432;-46
2022/04/12 04:22:43;;;;;;;7.20;2.67;;;;;;;;;;4978189;28;20570;-46
2022/04/12 04:25:10;;;;;;;14.27;3.37;;;;;;;;;;4978275;28;20940;-45
2022/04/12 04:27:37;;;;;;;9.60;2.80;;;;;;;;;;4979513;28;21167;-45
2022/04/12 04:30:08;;;;;;;6.33;2.60;;;;;;;;;;4982857;28;20726;-46
2022/04/12 04:32:34;;;;;;;6.60;2.83;;;;;;;;;;4975723;28;20583;-46
2022/04/12 04:35:01;;;;;;;11.00;3.77;;;;;;;;;;4980318;28;20805;-46
2022/04/12 04:37:27;;;;;;;8.67;3.00;;;;;;;;;;4978988;28;20904;-46
2022/04/12 04:39:53;;;;;;;8.73;3.30;;;;;;;;;;4975303;28;20438;-46
2022/04/12 04:42:23;;;;;;;6.33;3.10;;;;;;;;;;4982190;28;20464;-46
2022/04/12 04:44:49;;;;;;;7.83;3.37;;;;;;;;;;4978442;28;20427;-46
2022/04/12 04:47:15;;;;;;;8.07;3.23;;;;;;;;;;4976066;28;21549;-46
2022/04/12 04:49:42;;;;;;;12.13;3.67;;;;;;;;;;4983269;28;20948;-46
2022/04/12 04:52:08;;;;;;;7.47;3.10;;;;;;;;;;4979622;28;20436;-48
2022/04/12 04:54:34;;;;;;;8.47;3.40;;;;;;;;;;4978709;28;20810;-45
2022/04/12 04:57:00;;;;;;;9.03;3.50;;;;;;;;;;4980410;28;20442;-45
2022/04/12 04:59:30;;;;;;;10.43;3.40;;;;;;;;;;4979159;28;20443;-45
2022/04/12 05:01:56;;;;;;;9.47;3.50;;;;;;;;;;4981433;28;20539;-45
2022/04/12 05:04:22;;;;;;;12.10;3.87;;;;;;;;;;4980651;28;20481;-45
2022/04/12 05:06:48;;;;;;;10.47;3.87;;;;;;;;;;4981516;28;20510;-46
2022/04/12 05:09:14;;;;;;;8.70;3.10;;;;;;;;;;4981058;28;20443;-45
2022/04/12 05:11:40;;;;;;;11.07;3.63;;;;;;;;;;4981298;28;20431;-45
2022/04/12 05:14:06;;;;;;;9.10;3.87;;;;;;;;;;4981668;28;20427;-44
2022/04/12 05:16:33;;;;;;;8.17;3.40;;;;;;;;;;5007333;28;21058;-45
2022/04/12 05:18:59;;;;;;;8.33;3.60;;;;;;;;;;4980139;28;20905;-45
2022/04/12 05:21:25;;;;;;;7.77;3.40;;;;;;;;;;4981664;28;20590;-43
2022/04/12 05:23:51;;;;;;;11.17;3.40;;;;;;;;;;4976754;28;21192;-45
2022/04/12 05:26:18;;;;;;;7.80;3.00;;;;;;;;;;4980227;28;20547;-45
2022/04/12 05:28:44;;;;;;;11.03;3.17;;;;;;;;;;4977294;28;20431;-44
2022/04/12 05:31:10;;;;;;;8.53;3.13;;;;;;;;;;4974214;28;20508;-44
2022/04/12 05:33:36;;;;;;;9.97;3.37;;;;;;;;;;4988177;28;20812;-37
2022/04/12 05:36:02;;;;;;;10.60;2.93;;;;;;;;;;4998296;28;20467;-37
2022/04/12 05:38:29;;;;;;;9.13;3.13;;;;;;;;;;4985356;28;20596;-37
2022/04/12 05:40:55;;;;;;;8.57;2.93;;;;;;;;;;4976974;28;20447;-37
2022/04/12 05:43:21;;;;;;;7.10;2.50;;;;;;;;;;4980029;28;20440;-37
2022/04/12 05:45:47;;;;;;;6.27;2.27;;;;;;;;;;4997721;28;20427;-37
2022/04/12 05:48:13;;;;;;;8.20;2.67;;;;;;;;;;5002737;28;21000;-37
2022/04/12 05:50:40;;;;;;;6.87;2.40;;;;;;;;;;4997370;28;20713;-37
2022/04/12 05:53:06;;;;;;;7.43;2.80;;;;;;;;;;4998064;28;20423;-38
2022/04/12 05:55:35;;;;;;;5.70;2.63;;;;;;;;;;5028898;28;20454;-36
2022/04/12 05:58:03;;;;;;;10.27;2.93;;;;;;;;;;5003003;28;20426;-36
2022/04/12 06:00:35;;;;;;;9.03;2.70;;;;;;;;;;5000296;28;20459;-37
2022/04/12 06:03:04;;;;;;;8.67;3.03;;;;;;;;;;5000164;28;20434;-37
2022/04/12 06:05:32;;;;;;;8.83;3.40;;;;;;;;;;5001297;28;21009;-35
2022/04/12 06:07:59;;;;;;;10.73;3.63;;;;;;;;;;5004004;28;21318;-37
2022/04/12 06:10:26;;;;;;;10.03;3.20;;;;;;;;;;5020034;28;20420;-35
2022/04/12 06:12:52;;;;;;;13.87;3.60;;;;;;;;;;5005585;28;20736;-35
2022/04/12 06:15:22;;;;;;;12.70;3.70;;;;;;;;;;5009823;28;20420;-36
2022/04/12 06:17:48;;;;;;;18.10;7.10;;;;;;;;;;5007480;28;20437;-36
2022/04/12 06:20:16;;;;;;;13.47;3.67;;;;;;;;;;5009770;28;21364;-36
2022/04/12 06:22:42;;;;;;;8.83;3.73;;;;;;;;;;5004685;28;20452;-37
2022/04/12 06:25:09;;;;;;;12.20;3.97;;;;;;;;;;5005669;28;21274;-35
2022/04/12 06:27:37;;;;;;;10.03;4.30;;;;;;;;;;5010187;28;20483;-35
2022/04/12 06:30:08;;;;;;;13.17;4.33;;;;;;;;;;5002221;28;20462;-35
2022/04/12 06:32:35;;;;;;;11.80;4.77;;;;;;;;;;5001414;28;20932;-34
2022/04/12 06:35:02;;;;;;;13.17;4.47;;;;;;;;;;5001788;28;20887;-35
2022/04/12 06:37:29;;;;;;;9.53;4.10;;;;;;;;;;5030466;28;20436;-35
2022/04/12 06:39:58;;;;;;;10.43;4.30;;;;;;;;;;4999639;28;20427;-35
2022/04/12 06:42:27;;;;;;;10.37;4.03;;;;;;;;;;5000240;28;20455;-35
2022/04/12 06:44:53;;;;;;;13.27;4.17;;;;;;;;;;4998149;28;20456;-35
2022/04/12 06:47:22;;;;;;;12.17;4.80;;;;;;;;;;5002206;28;20451;-35
2022/04/12 06:49:49;;;;;;;8.77;4.43;;;;;;;;;;5000174;28;21058;-35
2022/04/12 06:52:15;;;;;;;9.53;4.10;;;;;;;;;;5001561;28;20795;-35
2022/04/12 06:54:42;;;;;;;12.30;4.37;;;;;;;;;;4999319;28;20526;-35
2022/04/12 06:57:08;;;;;;;10.10;4.20;;;;;;;;;;5000337;28;21038;-36
2022/04/12 06:59:35;;;;;;;7.03;3.93;;;;;;;;;;5017723;28;20499;-35
2022/04/12 07:02:01;;;;;;;14.23;4.37;;;;;;;;;;5001767;28;21095;-35
2022/04/12 07:04:28;;;;;;;10.23;3.80;;;;;;;;;;5007574;28;20174;-35
2022/04/12 07:06:56;;;;;;;7.50;3.20;;;;;;;;;;5015710;28;20773;-35
2022/04/12 07:09:22;;;;;;;7.60;3.30;;;;;;;;;;5002033;28;20231;-35
2022/04/12 07:11:48;;;;;;;9.77;3.70;;;;;;;;;;4999562;28;20173;-35
2022/04/12 07:14:14;;;;;;;8.40;3.30;;;;;;;;;;4997431;28;20191;-35
2022/04/12 07:16:41;;;;;;;8.67;3.40;;;;;;;;;;4999011;28;20184;-35
2022/04/12 07:19:07;;;;;;;7.30;3.40;;;;;;;;;;5010442;28;20998;-37
2022/04/12 07:21:37;;;;;;;7.47;3.63;;;;;;;;;;5000103;28;20197;-36
2022/04/12 07:24:03;;;;;;;5.90;3.30;;;;;;;;;;5005254;28;20184;-36
2022/04/12 07:26:32;;;;;;;7.10;3.47;;;;;;;;;;5001424;28;20169;-36
2022/04/12 07:28:59;;;;;;;10.30;3.17;;;;;;;;;;5001024;28;20177;-36
2022/04/12 07:31:25;;;;;;;8.03;3.13;;;;;;;;;;4984645;28;20173;-37
2022/04/12 07:33:52;;;;;;;6.10;3.00;;;;;;;;;;4993858;28;20181;-37
2022/04/12 07:36:18;;;;;;;7.60;3.33;;;;;;;;;;4998893;28;20744;-36
2022/04/12 07:38:44;;;;;;;6.70;2.90;;;;;;;;;;4998429;28;20370;-36
2022/04/12 07:41:13;;;;;;;7.27;3.30;;;;;;;;;;4996234;28;20236;-37
2022/04/12 07:43:39;;;;;;;6.23;2.90;;;;;;;;;;4994458;28;20871;-38
2022/04/12 07:46:06;;;;;;;6.90;3.40;;;;;;;;;;4993805;28;20169;-36
2022/04/12 07:48:32;;;;;;;10.10;3.70;;;;;;;;;;4993826;28;20370;-36
2022/04/12 07:50:58;;;;;;;6.43;3.40;;;;;;;;;;4984655;28;20959;-37
2022/04/12 07:53:24;;;;;;;5.63;3.43;;;;;;;;;;4983239;28;20173;-36
2022/04/12 07:55:50;;;;;;;10.43;3.47;;;;;;;;;;4981162;28;20166;-37
2022/04/12 07:58:16;;;;;;;5.67;3.30;;;;;;;;;;4977536;28;20172;-36
2022/04/12 08:00:42;;;;;;;6.37;3.67;;;;;;;;;;4979573;28;20973;-36
2022/04/12 08:03:09;;;;;;;5.63;3.87;;;;;;;;;;4983137;28;20642;-36
2022/04/12 08:05:35;;;;;;;9.30;3.90;;;;;;;;;;4976291;28;20173;-36
2022/04/12 08:08:02;;;;;;;7.50;3.63;;;;;;;;;;4976065;28;20165;-37
2022/04/12 08:10:28;;;;;;;7.53;4.00;;;;;;;;;;4981647;28;20785;-37
2022/04/12 08:12:55;;;;;;;7.73;3.77;;;;;;;;;;4977984;28;20513;-37
2022/04/12 08:15:22;;;;;;;8.03;4.20;;;;;;;;;;4983424;28;20180;-38
2022/04/12 08:17:48;;;;;;;10.00;3.43;;;;;;;;;;4986222;28;20288;-36
2022/04/12 08:20:15;;;;;;;9.53;4.77;;;;;;;;;;4989733;28;20169;-36
2022/04/12 08:22:41;;;;;;;9.87;4.90;;;;;;;;;;4999052;28;20700;-36
2022/04/12 08:25:08;;;;;;;7.97;5.20;;;;;;;;;;4998143;28;20495;-36
2022/04/12 08:27:35;;;;;;;9.77;5.10;;;;;;;;;;5013561;28;20200;-36
2022/04/12 08:30:02;;;;;;;7.40;4.83;;;;;;;;;;4997919;28;20665;-36
2022/04/12 08:32:29;;;;;;;8.37;4.80;;;;;;;;;;4996578;28;20206;-36
2022/04/12 08:34:56;;;;;;;9.13;4.50;;;;;;;;;;4993563;28;20264;-37
2022/04/12 08:37:22;;;;;;;10.20;4.83;;;;;;;;;;5004385;28;20188;-36
2022/04/12 08:39:48;;;;;;;9.23;5.50;;;;;;;;;;4999876;28;20917;-37
2022/04/12 08:42:15;;;;;;;9.53;4.63;;;;;;;;;;4995995;28;20568;-36
2022/04/12 08:44:44;;;;;;;10.87;6.97;;;;;;;;;;5013942;28;20530;-37
2022/04/12 08:47:18;;;;;;;10.90;6.30;;;;;;;;;;4995772;28;20177;-36
2022/04/12 08:49:44;;;;;;;9.43;6.23;;;;;;;;;;4995896;28;20282;-37
2022/04/12 08:52:13;;;;;;;7.40;5.03;;;;;;;;;;4998195;28;20172;-36
2022/04/12 08:54:40;;;;;;;8.20;5.33;;;;;;;;;;4996844;28;20191;-36
2022/04/12 08:57:06;;;;;;;10.30;5.20;;;;;;;;;;4997903;28;20170;-36
2022/04/12 08:59:33;;;;;;;9.93;5.50;;;;;;;;;;5012947;28;21301;-36
2022/04/12 09:01:59;;;;;;;11.60;5.90;;;;;;;;;;4990928;28;20399;-36
2022/04/12 09:04:26;;;;;;;12.97;6.13;;;;;;;;;;4987408;28;20173;-36
2022/04/12 09:06:53;;;;;;;11.43;6.10;;;;;;;;;;4985557;28;20193;-36
2022/04/12 09:09:21;;;;;;;9.53;5.77;;;;;;;;;;4989588;28;20537;-37
2022/04/12 09:12:02;;;;;;;10.23;5.83;;;;;;;;;;4983806;28;20724;-36
2022/04/12 09:14:43;;;;;;;12.10;6.57;;;;;;;;;;4986923;28;20276;-37
2022/04/12 09:17:13;;;;;;;10.97;6.40;;;;;;;;;;4984089;28;20664;-36
2022/04/12 09:19:44;;;;;;;9.47;6.40;;;;;;;;;;4983169;28;20185;-36
2022/04/12 09:22:21;;;;;;;13.43;7.47;;;;;;;;;;5017978;28;20432;-37
2022/04/12 09:24:51;;;;;;;12.43;6.67;;;;;;;;;;5013528;28;20184;-36
2022/04/12 09:27:18;;;;;;;13.00;7.57;;;;;;;;;;4982780;28;20172;-37
2022/04/12 09:29:45;;;;;;;12.23;7.43;;;;;;;;;;4980432;28;20169;-36
2022/04/12 09:32:14;;;;;;;12.43;7.83;;;;;;;;;;4983191;28;20200;-36
2022/04/12 09:34:41;;;;;;;13.40;7.47;;;;;;;;;;4979680;28;20232;-36
2022/04/12 09:37:24;;;;;;;10.63;7.10;;;;;;;;;;4996030;28;20646;-36
2022/04/12 09:39:59;;;;;;;13.27;8.23;;;;;;;;;;4980060;28;20173;-36
2022/04/12 09:42:44;;;;;;;12.73;7.70;;;;;;;;;;4983057;28;20538;-37
2022/04/12 09:45:14;;;;;;;12.07;8.50;;;;;;;;;;4981472;28;20177;-36
2022/04/12 09:47:44;;;;;;;16.83;8.23;;;;;;;;;;4980904;28;20201;-36
2022/04/12 09:50:11;;;;;;;15.83;8.83;;;;;;;;;;4983590;28;20177;-37
2022/04/12 09:52:37;;;;;;;16.67;8.97;;;;;;;;;;4984799;28;20898;-36
2022/04/12 09:55:04;;;;;;;13.53;9.07;;;;;;;;;;4983416;28;20329;-36
2022/04/12 09:57:31;;;;;;;10.57;7.87;;;;;;;;;;4982522;28;20618;-37
2022/04/12 10:00:00;;;;;;;12.40;7.87;;;;;;;;;;4983680;28;20173;-38
2022/04/12 10:02:27;;;;;;;11.83;8.23;;;;;;;;;;4984470;28;20738;-37
2022/04/12 10:04:54;;;;;;;14.20;8.20;;;;;;;;;;4984725;28;20186;-36
2022/04/12 10:07:22;;;;;;;13.77;8.50;;;;;;;;;;4983489;28;20179;-36
2022/04/12 10:09:49;;;;;;;13.17;9.43;;;;;;;;;;4982942;28;20662;-36
2022/04/12 10:12:17;;;;;;;16.67;9.20;;;;;;;;;;4983011;28;20188;-36
2022/04/12 10:14:43;;;;;;;14.20;9.30;;;;;;;;;;4979348;28;20247;-37
2022/04/12 10:17:10;;;;;;;14.60;8.87;;;;;;;;;;4993024;28;20603;-37
2022/04/12 10:19:36;;;;;;;13.70;9.13;;;;;;;;;;4996853;28;20179;-37
2022/04/12 10:22:03;;;;;;;16.27;10.10;;;;;;;;;;4994736;28;20208;-37
2022/04/12 10:24:31;;;;;;;14.30;10.17;;;;;;;;;;4998993;28;20173;-37
2022/04/12 10:26:57;;;;;;;14.63;9.57;;;;;;;;;;4995854;28;20503;-37
2022/04/12 10:29:33;;;;;;;15.23;10.20;;;;;;;;;;5001286;28;20271;-37
2022/04/12 10:32:01;;;;;;;17.87;10.77;;;;;;;;;;4995810;28;20989;-36
2022/04/12 10:34:27;;;;;;;20.17;10.40;;;;;;;;;;4997981;28;20398;-37
2022/04/12 10:36:56;;;;;;;15.03;10.20;;;;;;;;;;4993066;28;21195;-36
2022/04/12 10:39:29;;;;;;;16.53;10.47;;;;;;;;;;5001271;28;20183;-36
2022/04/12 10:41:56;;;;;;;17.80;10.63;;;;;;;;;;4999867;28;20192;-36
2022/04/12 10:44:22;;;;;;;14.77;10.53;;;;;;;;;;4999302;28;20169;-36
2022/04/12 10:46:55;;;;;;;15.43;10.40;;;;;;;;;;4995525;28;20340;-36
2022/04/12 10:49:23;;;;;;;16.70;10.97;;;;;;;;;;4998387;28;20626;-36
2022/04/12 10:51:57;;;;;;;20.07;10.83;;;;;;;;;;4996338;28;20656;-36
2022/04/12 10:54:29;;;;;;;15.53;10.47;;;;;;;;;;5001762;28;20221;-36
2022/04/12 10:57:14;;;;;;;16.33;10.77;;;;;;;;;;4996268;28;20236;-36
2022/04/12 10:59:40;;;;;;;17.27;10.17;;;;;;;;;;4996566;28;20181;-36
2022/04/12 11:02:14;;;;;;;15.43;10.67;;;;;;;;;;4999198;28;20310;-36
2022/04/12 11:04:40;;;;;;;19.10;10.20;;;;;;;;;;4995364;28;20177;-36
2022/04/12 11:07:09;;;;;;;16.53;9.43;;;;;;;;;;4996527;28;20258;-36
2022/04/12 11:09:37;;;;;;;15.87;10.10;;;;;;;;;;4996814;28;20197;-36
2022/04/12 11:12:03;;;;;;;15.80;10.70;;;;;;;;;;4998730;28;20184;-37
2022/04/12 11:14:36;;;;;;;17.43;11.27;;;;;;;;;;4997584;28;20177;-36
2022/04/12 11:17:09;;;;;;;16.00;10.63;;;;;;;;;;4998818;28;20446;-38
2022/04/12 11:19:42;;;;;;;17.93;11.33;;;;;;;;;;4999701;28;20183;-36
2022/04/12 11:22:15;;;;;;;18.40;11.23;;;;;;;;;;4992726;28;20478;-37
2022/04/12 11:24:41;;;;;;;14.27;9.60;;;;;;;;;;4996183;28;20253;-35
2022/04/12 11:27:21;;;;;;;13.87;9.60;;;;;;;;;;4994989;28;20841;-35
2022/04/12 11:29:56;;;;;;;16.90;10.30;;;;;;;;;;4993689;28;20181;-36
2022/04/12 11:32:26;;;;;;;16.43;11.47;;;;;;;;;;4988137;28;20169;-36
2022/04/12 11:34:52;;;;;;;17.90;12.50;;;;;;;;;;4997931;28;20192;-36
2022/04/12 11:37:24;;;;;;;16.03;10.97;;;;;;;;;;4994253;28;20207;-35
2022/04/12 11:39:51;;;;;;;18.23;11.97;;;;;;;;;;4995571;28;21096;-37
2022/04/12 11:42:17;;;;;;;19.57;12.90;;;;;;;;;;4998343;28;20205;-36
2022/04/12 11:44:51;;;;;;;21.60;13.40;;;;;;;;;;5008144;28;20416;-36
2022/04/12 11:47:18;;;;;;;17.20;11.53;;;;;;;;;;4996131;28;20180;-37
2022/04/12 11:49:44;;;;;;;19.93;12.43;;;;;;;;;;5010797;28;20189;-36
2022/04/12 11:52:12;;;;;;;19.30;13.07;;;;;;;;;;4996153;28;20200;-37
2022/04/12 11:54:39;;;;;;;19.00;13.97;;;;;;;;;;4997303;28;21095;-36
2022/04/12 11:57:13;;;;;;;19.97;13.80;;;;;;;;;;4999827;28;20213;-36
2022/04/12 11:59:46;;;;;;;13.30;9.23;;;;;;;;;;4988675;28;20182;-36
2022/04/12 12:02:13;;;;;;;13.67;6.10;;;;;;;;;;4983307;28;20649;-35
2022/04/12 12:04:50;;;;;;;18.33;11.50;;;;;;;;;;4992886;28;20612;-36
2022/04/12 12:07:16;;;;;;;14.67;9.87;;;;;;;;;;4996198;28;20196;-36
2022/04/12 12:09:53;;;;;;;11.90;9.53;;;;;;;;;;4994970;28;20644;-36
2022/04/12 12:12:19;;;;;;;16.80;11.80;;;;;;;;;;5021895;28;20173;-35
2022/04/12 12:14:45;;;;;;;13.63;10.80;;;;;;;;;;4985577;28;21708;-36
2022/04/12 12:17:18;;;;;;;17.43;12.03;;;;;;;;;;4987236;28;20292;-37
2022/04/12 12:19:45;;;;;;;17.03;12.27;;;;;;;;;;4997106;28;20184;-37
2022/04/12 12:22:12;;;;;;;15.93;11.37;;;;;;;;;;4995162;28;20201;-36
2022/04/12 12:25:05;;;;;;;17.53;12.87;;;;;;;;;;4998757;28;20174;-37
2022/04/12 12:27:35;;;;;;;17.40;12.33;;;;;;;;;;4994224;28;20332;-37
2022/04/12 12:30:04;;;;;;;18.07;12.27;;;;;;;;;;4986159;28;20173;-36
2022/04/12 12:32:31;;;;;;;15.87;11.97;;;;;;;;;;5018814;28;20204;-37
2022/04/12 12:35:02;;;;;;;17.90;12.00;;;;;;;;;;4995555;28;20600;-37
2022/04/12 12:37:28;;;;;;;19.33;12.60;;;;;;;;;;4979916;28;20235;-37
2022/04/12 12:39:54;;;;;;;17.33;12.90;;;;;;;;;;4982650;28;20192;-38
2022/04/12 12:42:22;;;;;;;19.90;13.17;;;;;;;;;;4981950;28;20627;-36
2022/04/12 12:44:49;;;;;;;20.37;13.30;;;;;;;;;;4984422;28;20567;-38
2022/04/12 12:47:15;;;;;;;21.47;14.87;;;;;;;;;;4979868;28;20177;-37
2022/04/12 12:49:42;;;;;;;20.30;13.37;;;;;;;;;;4981456;28;20918;-37
2022/04/12 12:52:10;;;;;;;20.70;14.87;;;;;;;;;;4983133;28;20288;-36
2022/04/12 12:54:37;;;;;;;22.63;16.23;;;;;;;;;;4982256;28;20250;-36
2022/04/12 12:57:05;;;;;;;21.97;15.07;;;;;;;;;;4990359;28;20255;-36
2022/04/12 12:59:32;;;;;;;18.90;14.37;;;;;;;;;;4998363;28;20598;-36
2022/04/12 13:02:07;;;;;;;21.70;13.90;;;;;;;;;;4995128;28;20201;-37
2022/04/12 13:04:36;;;;;;;20.23;14.40;;;;;;;;;;4993716;28;20258;-37
2022/04/12 13:07:03;;;;;;;20.70;14.63;;;;;;;;;;4999499;28;20429;-37
2022/04/12 13:09:35;;;;;;;21.43;14.67;;;;;;;;;;4995691;28;20709;-36
2022/04/12 13:12:01;;;;;;;21.80;14.23;;;;;;;;;;4997355;28;20611;-36
2022/04/12 13:14:28;;;;;;;18.90;13.47;;;;;;;;;;4998577;28;20185;-37
2022/04/12 13:16:54;;;;;;;24.13;14.07;;;;;;;;;;4997559;28;20826;-36
2022/04/12 13:19:27;;;;;;;22.37;13.27;;;;;;;;;;4997894;28;20186;-36
2022/04/12 13:21:53;;;;;;;19.43;13.30;;;;;;;;;;4996249;28;20211;-37
2022/04/12 13:24:20;;;;;;;19.83;13.40;;;;;;;;;;5010530;28;20226;-36
2022/04/12 13:26:46;;;;;;;20.70;13.13;;;;;;;;;;5004299;28;20255;-37
2022/04/12 13:29:13;;;;;;;19.50;13.70;;;;;;;;;;4981955;28;20165;-37
2022/04/12 13:31:39;;;;;;;18.40;12.73;;;;;;;;;;4993100;28;20180;-36
2022/04/12 13:34:05;;;;;;;16.07;11.23;;;;;;;;;;4994823;28;20276;-36
2022/04/12 13:36:31;;;;;;;17.80;11.87;;;;;;;;;;4995667;28;21029;-36
2022/04/12 13:38:58;;;;;;;15.80;11.03;;;;;;;;;;4990281;28;20177;-36
2022/04/12 13:41:24;;;;;;;17.03;11.67;;;;;;;;;;4988282;28;20256;-36
2022/04/12 13:43:50;;;;;;;15.30;10.30;;;;;;;;;;4989711;28;20177;-35
2022/04/12 13:46:16;;;;;;;15.20;10.60;;;;;;;;;;4993541;28;20192;-36
2022/04/12 13:48:46;;;;;;;14.13;9.50;;;;;;;;;;4992379;28;20195;-35
2022/04/12 13:51:13;;;;;;;13.53;9.10;;;;;;;;;;4996963;28;20188;-35
2022/04/12 13:53:39;;;;;;;14.13;9.70;;;;;;;;;;4995321;28;20232;-35
2022/04/12 13:56:05;;;;;;;14.40;9.80;;;;;;;;;;4996884;28;20188;-35
2022/04/12 13:58:32;;;;;;;15.33;10.40;;;;;;;;;;5002766;28;20807;-36
2022/04/12 14:01:00;;;;;;;14.20;9.20;;;;;;;;;;4998071;28;21031;-35
2022/04/12 14:03:27;;;;;;;15.77;9.73;;;;;;;;;;4992888;28;20667;-35
2022/04/12 14:05:53;;;;;;;17.33;10.03;;;;;;;;;;4996768;28;20521;-35
2022/04/12 14:08:20;;;;;;;14.60;9.40;;;;;;;;;;4998562;28;20284;-35
2022/04/12 14:10:46;;;;;;;14.30;9.43;;;;;;;;;;5026657;28;20186;-35
2022/04/12 14:13:12;;;;;;;13.63;10.00;;;;;;;;;;4983774;28;20304;-35
2022/04/12 14:15:38;;;;;;;12.63;9.60;;;;;;;;;;4980645;28;20184;-36
2022/04/12 14:18:04;;;;;;;13.77;9.40;;;;;;;;;;4980425;28;20281;-37
2022/04/12 14:20:33;;;;;;;13.23;8.87;;;;;;;;;;4995204;28;20180;-36
2022/04/12 14:23:00;;;;;;;15.63;9.50;;;;;;;;;;4994827;28;20211;-36
2022/04/12 14:25:26;;;;;;;16.57;9.00;;;;;;;;;;4996593;28;20208;-36
2022/04/12 14:27:55;;;;;;;14.50;9.27;;;;;;;;;;4999923;28;20502;-34
2022/04/12 14:30:22;;;;;;;13.67;9.50;;;;;;;;;;4995943;28;20181;-34
2022/04/12 14:32:57;;;;;;;14.03;9.03;;;;;;;;;;5000367;28;20208;-33